createdAt,value
2023-05-17T05:13:27.359Z,18.90
2023-05-17T05:15:31.250Z,19.02
2023-05-17T05:17:35.268Z,19.13
2023-05-17T05:19:39.356Z,19.22
2023-05-17T05:21:45.376Z,19.19
2023-05-17T05:26:08.365Z,19.38
2023-05-17T05:28:11.889Z,19.50
2023-05-17T05:32:39.351Z,19.55
2023-05-17T05:34:42.615Z,19.61
2023-05-17T05:36:45.841Z,19.69
2023-05-17T05:38:49.415Z,19.74
2023-05-17T05:43:08.861Z,19.85
2023-05-17T05:47:31.656Z,20.08
2023-05-17T05:54:08.092Z,20.39
2023-05-17T05:56:11.292Z,20.35
2023-05-17T05:58:14.717Z,20.44
2023-05-17T06:04:53.466Z,20.65
2023-05-17T06:06:56.932Z,20.66
2023-05-17T06:09:00.001Z,20.75
2023-05-17T06:11:03.145Z,20.89
2023-05-17T06:15:23.660Z,21.05
2023-05-17T06:20:03.411Z,21.26
2023-05-17T06:24:25.492Z,21.26
2023-05-17T06:26:28.959Z,21.26
2023-05-17T06:28:31.776Z,21.26
2023-05-17T06:32:51.233Z,21.37
2023-05-17T06:37:11.293Z,21.51
2023-05-17T06:39:14.831Z,21.44
2023-05-17T06:43:37.136Z,21.56
2023-05-17T06:45:40.775Z,21.70
2023-05-17T06:47:44.948Z,21.74
2023-05-17T06:49:48.428Z,21.76
2023-05-17T06:51:51.907Z,21.74
2023-05-17T06:53:55.244Z,21.79
2023-05-17T06:55:58.160Z,21.87
2023-05-17T06:58:01.023Z,22.00
2023-05-17T07:02:24.398Z,22.13
2023-05-17T07:04:27.820Z,22.19
2023-05-17T07:06:31.602Z,22.10
2023-05-17T07:08:35.318Z,22.25
2023-05-17T07:10:38.827Z,22.18
2023-05-17T07:14:58.685Z,22.41
2023-05-17T07:17:01.863Z,22.42
2023-05-17T07:19:09.497Z,22.45
2023-05-17T07:25:48.153Z,22.49
2023-05-17T07:30:10.051Z,22.74
2023-05-17T07:32:19.234Z,22.73
2023-05-17T07:34:23.112Z,22.96
2023-05-17T07:38:47.991Z,22.98
2023-05-17T07:43:10.177Z,23.13
2023-05-17T07:45:13.729Z,23.20
2023-05-17T07:47:19.658Z,23.29
2023-05-17T07:49:31.316Z,23.23
2023-05-17T07:51:37.083Z,23.39
2023-05-17T07:53:40.367Z,23.40
2023-05-17T07:55:44.009Z,23.53
2023-05-17T07:57:51.163Z,23.65
2023-05-17T08:06:53.419Z,23.71
2023-05-17T08:11:13.859Z,23.99
2023-05-17T08:13:18.058Z,24.04
2023-05-17T08:27:12.255Z,24.39
2023-05-17T08:29:18.025Z,24.37
2023-05-17T08:31:21.692Z,24.39
2023-05-17T08:35:45.744Z,24.51
2023-05-17T08:47:08.903Z,24.88
2023-05-17T08:49:18.042Z,24.92
2023-05-17T09:05:39.020Z,25.63
2023-05-17T09:19:19.365Z,25.77
2023-05-17T09:21:25.108Z,25.77
2023-05-17T09:23:30.599Z,25.72
2023-05-17T09:27:55.365Z,25.72
2023-05-17T09:30:00.608Z,25.77
2023-05-17T09:34:34.956Z,25.94
2023-05-17T09:43:40.716Z,25.77
2023-05-17T09:45:48.397Z,25.78
2023-05-17T09:47:56.936Z,25.78
2023-05-17T09:50:03.916Z,25.76
2023-05-17T09:52:14.141Z,25.78
2023-05-17T09:54:19.267Z,25.79
2023-05-17T09:56:27.910Z,25.83
2023-05-17T09:58:33.139Z,25.90
2023-05-17T10:00:38.546Z,25.96
2023-05-17T10:02:56.704Z,26.07
2023-05-17T10:07:25.196Z,26.22
2023-05-17T10:09:34.818Z,26.25
2023-05-17T10:11:48.599Z,26.37
2023-05-17T10:16:49.689Z,26.31
2023-05-17T10:18:53.376Z,26.45
2023-05-17T10:20:57.495Z,26.54
2023-05-17T10:23:03.924Z,26.66
2023-05-17T10:25:12.134Z,26.70
2023-05-17T10:27:16.514Z,26.79
2023-05-17T10:29:27.695Z,26.91
2023-05-17T10:31:37.346Z,27.10
2023-05-17T10:33:44.180Z,27.19
2023-05-17T10:35:50.489Z,27.24
2023-05-17T10:37:54.297Z,27.46
2023-05-17T10:39:58.064Z,27.44
2023-05-17T10:42:17.819Z,27.32
2023-05-17T10:44:21.268Z,27.21
2023-05-17T10:48:42.931Z,27.17
2023-05-17T10:51:01.151Z,27.31
2023-05-17T10:53:10.595Z,27.47
2023-05-17T10:55:26.641Z,27.56
2023-05-17T11:00:24.909Z,27.99
2023-05-17T11:02:29.171Z,27.98
2023-05-17T11:04:37.094Z,27.89
2023-05-17T11:06:41.279Z,27.92
2023-05-17T11:08:47.791Z,28.03
2023-05-17T11:11:13.038Z,27.98
2023-05-17T11:13:25.756Z,28.00
2023-05-17T11:15:28.743Z,27.99
2023-05-17T11:17:37.216Z,28.01
2023-05-17T11:19:40.238Z,28.15
2023-05-17T11:21:47.746Z,28.31
2023-05-17T11:23:56.838Z,28.48
2023-05-17T11:26:32.933Z,28.52
2023-05-17T11:28:36.561Z,28.64
2023-05-17T11:30:43.752Z,28.86
2023-05-17T11:32:59.021Z,28.68
2023-05-17T11:35:02.408Z,28.66
2023-05-17T11:37:12.302Z,28.68
2023-05-17T11:39:19.325Z,28.79
2023-05-17T11:41:26.809Z,28.90
2023-05-17T11:43:31.278Z,28.96
2023-05-17T11:45:43.650Z,29.10
2023-05-17T11:47:48.861Z,29.21
2023-05-17T11:49:54.935Z,29.36
2023-05-17T11:51:59.574Z,29.46
2023-05-17T11:54:04.613Z,29.62
2023-05-17T11:56:08.864Z,29.79
2023-05-17T11:58:13.368Z,30.03
2023-05-17T12:00:17.823Z,30.27
2023-05-17T12:02:31.236Z,30.66
2023-05-17T12:04:38.481Z,30.72
2023-05-17T12:13:50.687Z,31.51
2023-05-17T12:18:40.288Z,31.89
2023-05-17T12:23:53.145Z,31.82
2023-05-17T12:26:31.081Z,31.79
2023-05-17T12:42:27.921Z,31.30
2023-05-17T12:44:35.434Z,31.22
2023-05-17T12:48:56.053Z,30.90
2023-05-17T12:51:10.550Z,30.82
2023-05-17T12:53:18.922Z,30.79
2023-05-17T12:55:21.642Z,31.07
2023-05-17T12:57:24.921Z,31.23
2023-05-17T13:01:46.584Z,31.50
2023-05-17T13:03:52.746Z,31.60
2023-05-17T13:06:04.432Z,31.59
2023-05-17T13:08:20.888Z,31.74
2023-05-17T13:10:28.839Z,31.71
2023-05-17T13:14:52.324Z,31.41
2023-05-17T13:16:59.836Z,31.41
2023-05-17T13:19:02.656Z,31.50
2023-05-17T13:21:05.433Z,31.58
2023-05-17T13:23:08.322Z,31.69
2023-05-17T13:25:12.770Z,31.75
2023-05-17T13:27:18.452Z,31.81
2023-05-17T13:29:35.272Z,31.93
2023-05-17T13:31:43.270Z,32.11
2023-05-17T13:33:46.163Z,32.13
2023-05-17T13:35:49.043Z,32.04
2023-05-17T13:37:51.936Z,32.10
2023-05-17T13:39:56.590Z,32.26
2023-05-17T13:41:59.837Z,32.55
2023-05-17T13:46:21.796Z,32.64
2023-05-17T13:50:42.316Z,32.85
2023-05-17T13:52:49.614Z,32.90
2023-05-17T13:54:53.270Z,33.07
2023-05-17T13:57:08.677Z,33.09
2023-05-17T13:59:14.582Z,32.95
2023-05-17T14:01:19.404Z,32.81
2023-05-17T14:03:22.646Z,32.70
2023-05-17T14:05:28.284Z,32.62
2023-05-17T14:07:31.083Z,32.62
2023-05-17T14:09:48.411Z,32.50
2023-05-17T14:11:52.655Z,32.44
2023-05-17T14:13:56.248Z,32.43
2023-05-17T14:15:59.122Z,32.27
2023-05-17T14:18:01.915Z,32.04
2023-05-17T14:20:05.302Z,31.75
2023-05-17T14:22:09.380Z,31.49
2023-05-17T14:24:16.194Z,31.36
2023-05-17T14:26:19.608Z,31.28
2023-05-17T14:28:23.502Z,31.10
2023-05-17T14:30:26.556Z,30.86
2023-05-17T14:32:30.698Z,30.99
2023-05-17T14:34:33.729Z,30.83
2023-05-17T14:36:38.460Z,30.92
2023-05-17T14:38:41.332Z,30.96
2023-05-17T14:40:44.196Z,31.00
2023-05-17T14:42:47.423Z,30.81
2023-05-17T14:44:50.843Z,30.82
2023-05-17T14:46:54.845Z,30.74
2023-05-17T14:48:57.655Z,30.43
2023-05-17T14:51:00.452Z,30.13
2023-05-17T14:53:03.364Z,29.71
2023-05-17T14:55:06.614Z,29.65
2023-05-17T14:57:10.496Z,29.33
2023-05-17T14:59:13.220Z,29.04
2023-05-17T15:01:16.285Z,28.75
2023-05-17T15:03:21.795Z,28.28
2023-05-17T15:05:34.770Z,28.01
2023-05-17T15:07:37.957Z,27.86
2023-05-17T15:09:41.904Z,27.61
2023-05-17T15:11:45.800Z,27.55
2023-05-17T15:13:48.984Z,27.28
2023-05-17T15:15:53.165Z,27.14
2023-05-17T15:17:56.227Z,27.13
2023-05-17T15:20:00.305Z,27.20
2023-05-17T15:22:12.631Z,27.16
2023-05-17T15:24:17.205Z,27.17
2023-05-17T15:28:39.222Z,27.02
2023-05-17T15:30:44.581Z,26.86
2023-05-17T15:32:48.555Z,26.88
2023-05-17T15:37:10.018Z,26.62
2023-05-17T15:59:47.317Z,25.06
2023-05-17T16:08:42.674Z,24.60
2023-05-17T16:10:45.338Z,24.55
2023-05-17T16:15:07.849Z,24.33
2023-05-17T16:17:11.619Z,24.23
2023-05-17T16:21:33.081Z,24.08
2023-05-17T16:23:36.314Z,23.97
2023-05-17T16:25:39.380Z,23.88
2023-05-17T16:27:48.817Z,23.81
2023-05-17T16:29:52.732Z,23.73
2023-05-17T16:32:07.791Z,23.69
2023-05-17T16:34:12.373Z,23.58
2023-05-17T16:36:15.230Z,23.49
2023-05-17T16:38:18.326Z,23.40
2023-05-17T16:40:22.251Z,23.32
2023-05-17T16:42:26.690Z,23.27
2023-05-17T16:44:30.169Z,23.21
2023-05-17T16:46:34.461Z,23.14
2023-05-17T16:48:37.722Z,23.06
2023-05-17T16:50:44.409Z,22.97
2023-05-17T16:52:47.442Z,22.95
2023-05-17T16:54:51.481Z,22.91
2023-05-17T16:57:04.364Z,22.80
2023-05-17T17:06:17.027Z,22.53
2023-05-17T17:08:19.716Z,22.56
2023-05-17T17:10:22.558Z,22.50
2023-05-17T17:12:26.304Z,22.48
2023-05-17T17:14:29.531Z,22.44
2023-05-17T17:16:33.688Z,22.37
2023-05-17T17:18:36.695Z,22.32
2023-05-17T17:20:39.474Z,22.25
2023-05-17T17:22:42.216Z,22.23
2023-05-17T17:24:45.053Z,22.17
2023-05-17T17:26:50.096Z,22.15
2023-05-17T17:28:52.852Z,22.12
2023-05-17T17:30:55.588Z,22.12
2023-05-17T17:32:58.387Z,22.08
2023-05-17T17:35:01.384Z,22.06
2023-05-17T17:37:07.040Z,22.01
2023-05-17T17:39:10.538Z,21.96
2023-05-17T17:41:13.272Z,21.92
2023-05-17T17:43:16.282Z,21.85
2023-05-17T17:45:19.013Z,21.81
2023-05-17T17:47:21.893Z,21.76
2023-05-17T17:49:24.717Z,21.69
2023-05-17T17:51:27.447Z,21.62
2023-05-17T17:53:30.344Z,21.61
2023-05-17T17:55:33.139Z,21.56
2023-05-17T17:57:35.941Z,21.50
2023-05-17T17:59:38.607Z,21.44
2023-05-17T18:01:41.376Z,21.38
2023-05-17T18:03:44.142Z,21.30
2023-05-17T18:05:46.817Z,21.28
2023-05-17T18:07:49.569Z,21.22
2023-05-17T18:09:52.630Z,21.19
2023-05-17T18:11:56.858Z,21.11
2023-05-17T18:13:59.692Z,21.10
2023-05-17T18:16:02.803Z,21.07
2023-05-17T18:18:05.990Z,21.03
2023-05-17T18:20:09.151Z,21.02
2023-05-17T18:22:11.943Z,20.96
2023-05-17T18:24:14.707Z,20.96
2023-05-17T18:26:17.502Z,20.93
2023-05-17T18:30:42.875Z,20.84
2023-05-17T18:32:45.895Z,20.80
2023-05-17T18:34:49.119Z,20.79
2023-05-17T18:36:51.838Z,20.76
2023-05-17T18:38:58.854Z,20.74
2023-05-17T18:41:01.564Z,20.68
2023-05-17T18:43:04.581Z,20.60
2023-05-17T18:45:08.060Z,20.55
2023-05-17T18:47:12.200Z,20.49
2023-05-17T18:49:15.054Z,20.44
2023-05-17T18:51:17.931Z,20.38
2023-05-17T18:53:20.677Z,20.33
2023-05-17T18:55:23.914Z,20.33
2023-05-17T18:57:26.617Z,20.30
2023-05-17T18:59:29.399Z,20.30
2023-05-17T19:01:32.447Z,20.27
2023-05-17T19:03:35.588Z,20.27
2023-05-17T19:05:38.434Z,20.25
2023-05-17T19:07:41.300Z,20.25
2023-05-17T19:09:44.118Z,20.23
2023-05-17T19:11:46.891Z,20.19
2023-05-17T19:13:49.755Z,20.16
2023-05-17T19:15:53.014Z,20.15
2023-05-17T19:17:55.973Z,20.12
2023-05-17T19:19:58.837Z,20.10
2023-05-17T19:22:02.560Z,20.06
2023-05-17T19:24:05.885Z,20.04
2023-05-17T19:26:08.892Z,20.04
2023-05-17T19:28:11.591Z,20.00
2023-05-17T19:30:14.434Z,19.95
2023-05-17T19:32:17.227Z,19.88
2023-05-17T19:34:19.926Z,19.80
2023-05-17T19:36:22.648Z,19.77
2023-05-17T19:38:25.421Z,19.73
2023-05-17T19:40:28.520Z,19.70
2023-05-17T19:42:31.618Z,19.63
2023-05-17T19:44:34.447Z,19.57
2023-05-17T19:46:37.648Z,19.50
2023-05-17T19:48:41.528Z,19.44
2023-05-17T19:50:44.471Z,19.41
2023-05-17T19:52:47.622Z,19.40
2023-05-17T19:54:50.475Z,19.39
2023-05-17T19:56:53.655Z,19.39
2023-05-17T19:58:56.436Z,19.41
2023-05-17T20:00:59.286Z,19.38
2023-05-17T20:03:02.205Z,19.34
2023-05-17T20:05:06.238Z,19.36
2023-05-17T20:07:09.360Z,19.34
2023-05-17T20:09:12.152Z,19.32
2023-05-17T20:11:14.977Z,19.33
2023-05-17T20:13:19.765Z,19.29
2023-05-17T20:15:23.095Z,19.25
2023-05-17T20:17:25.959Z,19.19
2023-05-17T20:19:31.027Z,19.19
2023-05-17T20:21:33.939Z,19.18
2023-05-17T20:23:36.655Z,19.15
2023-05-17T20:25:41.260Z,19.13
2023-05-17T20:27:44.249Z,19.14
2023-05-17T20:29:46.978Z,19.12
2023-05-17T20:31:49.884Z,19.07
2023-05-17T20:33:53.247Z,19.01
2023-05-17T20:35:56.232Z,18.99
2023-05-17T20:37:58.936Z,18.93
2023-05-17T20:40:01.884Z,18.96
2023-05-17T20:42:07.955Z,18.95
2023-05-17T20:44:12.786Z,18.96
2023-05-17T20:46:17.950Z,18.93
2023-05-17T20:48:20.659Z,18.97
2023-05-17T20:50:23.425Z,18.98
2023-05-17T20:54:31.834Z,18.97
2023-05-17T20:56:37.088Z,18.97
2023-05-17T20:58:39.948Z,18.92
2023-05-17T21:00:43.034Z,18.88
2023-05-17T21:02:45.917Z,18.84
2023-05-17T21:04:48.846Z,18.78
2023-05-17T21:06:52.589Z,18.73
2023-05-17T21:08:55.849Z,18.69
2023-05-17T21:10:58.935Z,18.63
2023-05-17T21:13:01.775Z,18.64
2023-05-17T21:15:19.610Z,18.59
2023-05-17T21:17:22.432Z,18.54
2023-05-17T21:19:25.398Z,18.52
2023-05-17T21:21:28.232Z,18.53
2023-05-17T21:23:31.104Z,18.50
2023-05-17T21:25:35.210Z,18.48
2023-05-17T21:27:38.022Z,18.42
2023-05-17T21:29:40.755Z,18.36
2023-05-17T21:31:43.570Z,18.26
2023-05-17T21:33:46.303Z,18.14
2023-05-17T21:35:49.090Z,18.01
2023-05-17T21:37:51.883Z,17.82
2023-05-17T21:39:54.674Z,17.67
2023-05-17T21:41:57.431Z,17.53
2023-05-17T21:44:00.350Z,17.40
2023-05-17T21:46:03.406Z,17.29
2023-05-17T21:48:06.345Z,17.23
2023-05-17T21:50:10.212Z,17.13
2023-05-17T21:52:13.003Z,17.07
2023-05-17T21:54:15.841Z,16.99
2023-05-17T21:56:18.640Z,17.01
2023-05-17T21:58:21.524Z,17.03
2023-05-17T22:00:27.911Z,17.05
2023-05-17T22:02:30.983Z,17.03
2023-05-17T22:04:33.875Z,17.01
2023-05-17T22:06:36.810Z,17.01
2023-05-17T22:08:42.481Z,16.98
2023-05-17T22:10:45.350Z,16.99
2023-05-17T22:12:50.447Z,16.99
2023-05-17T22:14:55.970Z,16.98
2023-05-17T22:16:59.856Z,16.98
2023-05-17T22:19:04.042Z,16.94
2023-05-17T22:21:09.103Z,16.91
2023-05-17T22:23:12.134Z,16.88
2023-05-17T22:25:15.814Z,16.84
2023-05-17T22:27:20.713Z,16.83
2023-05-17T22:29:23.417Z,16.82
2023-05-17T22:31:26.471Z,16.85
2023-05-17T22:33:29.874Z,16.87
2023-05-17T22:35:32.796Z,16.94
2023-05-17T22:37:36.698Z,16.99
2023-05-17T22:39:41.216Z,17.03
2023-05-17T22:41:44.495Z,17.09
2023-05-17T22:43:47.203Z,17.14
2023-05-17T22:45:50.425Z,17.19
2023-05-17T22:47:54.550Z,17.25
2023-05-17T22:49:57.840Z,17.30
2023-05-17T22:52:08.036Z,17.35
2023-05-17T22:54:11.272Z,17.38
2023-05-17T22:56:14.070Z,17.41
2023-05-17T22:58:17.064Z,17.41
2023-05-17T23:00:20.703Z,17.42
2023-05-17T23:02:23.563Z,17.40
2023-05-17T23:04:26.437Z,17.38
2023-05-17T23:06:32.310Z,17.36
2023-05-17T23:08:35.030Z,17.33
2023-05-17T23:10:38.109Z,17.30
2023-05-17T23:12:40.838Z,17.31
2023-05-17T23:14:43.695Z,17.28
2023-05-17T23:16:46.921Z,17.26
2023-05-17T23:18:49.847Z,17.23
2023-05-17T23:20:52.672Z,17.17
2023-05-17T23:22:55.626Z,17.19
2023-05-17T23:24:58.860Z,17.18
2023-05-17T23:27:01.550Z,17.20
2023-05-17T23:29:05.640Z,17.21
2023-05-17T23:31:08.632Z,17.23
2023-05-17T23:33:11.824Z,17.26
2023-05-17T23:35:14.601Z,17.25
2023-05-17T23:37:17.479Z,17.25
2023-05-17T23:39:20.207Z,17.26
2023-05-17T23:41:25.480Z,17.24
2023-05-17T23:43:28.296Z,17.25
2023-05-17T23:45:31.289Z,17.25
2023-05-17T23:47:34.456Z,17.25
2023-05-17T23:49:37.503Z,17.27
2023-05-17T23:51:40.445Z,17.27
2023-05-17T23:53:43.423Z,17.27
2023-05-17T23:55:46.847Z,17.28
2023-05-17T23:57:49.618Z,17.27
2023-05-17T23:59:52.448Z,17.30
